ADDS METAR Data INFO
IDs: Format: Raw Decoded Include TAF

Data at: 1526 UTC 18 Jun 2018

KWVL 181456Z AUTO VRB03KT 10SM CLR 18/16 A2979 RMK AO2 LTG DSNT N SLP113 60000 T01830156 58028 $
KWVL 181356Z AUTO 00000KT 10SM FEW005 16/14 A2984 RMK AO2 SLP133 T01610144 $
KWVL 181345Z AUTO 00000KT 10SM SCT005 16/14 A2984 RMK AO2 $
KWVL 181256Z AUTO 19004KT 6SM BR BKN003 14/13 A2984 RMK AO2 RAE33 SLP131 P0000 T01390133 $
KWVL 181238Z AUTO VRB03KT 4SM BR BKN003 BKN033 13/13 A2984 RMK AO2 RAE33 P0000 $
KWVL 181208Z AUTO 00000KT 6SM -RA BR SCT003 SCT034 13/13 A2986 RMK AO2 LTG DSNT N P0000 $
KWVL 181156Z AUTO 20004KT 6SM -RA BR BKN003 13/13 A2987 RMK AO2 LTG DSNT N SLP142 P0001 60002 70002 T01330128 10133 20111 56020 $
KWVL 181115Z AUTO 20004KT 5SM BR BKN003 13/12 A2987 RMK AO2 RAE11 P0000 $
KWVL 181056Z AUTO 19004KT 5SM -RA BR FEW003 12/12 A2988 RMK AO2 SLP144 P0001 T01220122 $
KWVL 181011Z AUTO VRB04KT 6SM -RA BR SCT003 BKN037 12/12 A2988 RMK AO2 P0000 $
KWVL 181005Z AUTO VRB03KT 7SM RA BKN003 BKN013 BKN037 12/12 A2988 RMK AO2 P0000 $
KWVL 180956Z AUTO 19004KT 10SM -RA SCT003 12/12 A2989 RMK AO2 RAB0857 SLP147 P0000 T01220117 $
KWVL 180949Z AUTO 00000KT 10SM -RA FEW003 12/12 A2989 RMK AO2 RAB0857 P0000 $
KWVL 180856Z AUTO 22004KT 10SM FEW070 BKN095 BKN110 12/11 A2993 RMK AO2 RAB0759E24 SLP161 P0000 60000 T01220111 56012 TSNO $
KWVL 180756Z AUTO 22004KT 10SM FEW120 12/11 A2994 RMK AO2 SLP162 T01170111 $
KWVL 180656Z AUTO 00000KT 10SM CLR 11/11 A2994 RMK AO2 SLP165 T01110106 $
KWVL 180456Z AUTO 00000KT 10SM CLR 12/11 A3000 RMK AO2 SLP184 T01170106 402780117 $
KWVL 180356Z AUTO 19003KT 10SM CLR 13/11 A3002 RMK AO2 SLP192 T01280106 $
KWVL 180256Z AUTO 00000KT 10SM CLR 13/11 A3003 RMK AO2 SLP195 T01330106 58003 $
KWVL 180156Z AUTO 00000KT 10SM CLR 14/11 A3005 RMK AO2 SLP202 T01440111 $
KWVL 180056Z AUTO VRB03KT 10SM CLR 16/11 A3005 RMK AO2 SLP201 T01560111 $
KWVL 172356Z AUTO VRB06KT 10SM CLR 17/11 A3004 RMK AO2 SLP198 T01670111 10278 20167 53001 $
KWVL 172256Z AUTO VRB06KT 10SM CLR 19/12 A3001 RMK AO2 SLP189 T01890122
KWVL 172156Z AUTO 17005KT 10SM CLR 21/13 A3004 RMK AO2 SLP198 T02110128
KWVL 172056Z AUTO VRB04KT 10SM CLR 24/14 A3004 RMK AO2 SLP197 T02390144 55001
KWVL 171956Z AUTO VRB05KT 10SM CLR 26/15 A3003 RMK AO2 SLP195 T02560150
KWVL 171856Z AUTO VRB04KT 10SM CLR 28/16 A3003 RMK AO2 SLP191 T02780156
KWVL 171756Z AUTO VRB04KT 10SM CLR 27/12 A3004 RMK AO2 SLP197 T02720117 10278 20161 56011
KWVL 171656Z AUTO VRB03KT 10SM CLR 26/13 A3006 RMK AO2 SLP201 T02610133
KWVL 171556Z AUTO 00000KT 10SM CLR 24/13 A3004 RMK AO2 SLP197 T02440133
KWVL 171456Z AUTO 00000KT 10SM CLR 23/11 A3007 RMK AO2 SLP209 T02280111 50007
KWVL 171356Z AUTO VRB04KT 10SM CLR 21/12 A3008 RMK AO2 SLP209 T02110122
KWVL 171256Z AUTO 00000KT 10SM CLR 18/12 A3005 RMK AO2 SLP200 T01830117
KWVL 171156Z AUTO 04003KT 10SM CLR 16/11 A3005 RMK AO2 SLP201 T01610111 10161 20117 51020 $
KWVL 171056Z AUTO 03005KT 9SM CLR 15/11 A3002 RMK AO2 SLP192 T01500106 $
KWVL 170956Z AUTO 05003KT 10SM CLR 13/11 A3002 RMK AO2 SLP190 T01280106 $
KWVL 170856Z AUTO 00000KT 10SM CLR 12/09 A2999 RMK AO2 SLP180 T01220094 51015 TSNO $
KWVL 170756Z AUTO 00000KT 10SM CLR 13/11 A2998 RMK AO2 SLP178 T01330106 $
KWVL 170656Z AUTO 00000KT 10SM CLR 13/09 A2996 RMK AO2 SLP169 T01330094 TSNO $
KWVL 170556Z AUTO 00000KT 10SM CLR 14/10 A2995 RMK AO2 SLP166 T01440100 10239 20133 55000 $
KWVL 170456Z AUTO 00000KT 10SM CLR 15/10 A2994 RMK AO2 SLP164 T01500100 402890100 $
KWVL 170356Z AUTO 30005KT 10SM CLR 19/10 A2995 RMK AO2 SLP164 T01890100 $